GEC8222 EDDF-MMMY
Flight info
| Callsign | GEC8222 |
|---|---|
| Flight time | N/A |
| Altitude | 34000 |
| Route | OBOKA3M OBOKA Z29 TORNU DCT BATAK DCT GALSO Q63 ERING L179 UGBET Q60 OKSAW DCT BIBPE DCT FELCA DCT FADZU DCT OFSOX DCT SLANY DCT TOBOR/M083F360 DCT 53N020W 53N030W 5230N04000W 50N050W DCT ELSIR/N0466F360 N398B TUSKY/N0470F380 Q475 COPLY Q75 NELIE DCT TRIBS Q448 PTW J48 CSN DCT FANPO Q40 ALEAN/N0474F400 Q40 AEX DCT DAS DCT PSX DCT REX UJ13 ITPIS ITPIS1A |
| Aircraft | B77L/H-SDE2E3FGHIJ1J3J4J5M1P2RWXYZ/LB1D1 |
Departure
| Time | N/A |
|---|---|
| Airport | Frankfurt Main Airport (EDDF) |
Arrival
| Time | 2026-05-07 05:46 |
|---|---|
| Airport | Monterrey International Airport (MMMY) |
| Time | Latitude | Longitude | Altitude | Speed | Heading |
|---|---|---|---|---|---|
| 2026-05-07 04:09 | 31.43921 | -92.11901 | 39978 ft | 397 kts | 243° |
| 2026-05-07 04:10 | 31.41240 | -92.17545 | 39979 ft | 397 kts | 243° |
| 2026-05-07 04:10 | 31.38925 | -92.22411 | 39981 ft | 397 kts | 243° |
| 2026-05-07 04:11 | 31.36236 | -92.28056 | 39982 ft | 397 kts | 243° |
| 2026-05-07 04:11 | 31.33545 | -92.33697 | 39982 ft | 397 kts | 243° |
| 2026-05-07 04:12 | 31.30852 | -92.39333 | 39981 ft | 398 kts | 243° |
| 2026-05-07 04:12 | 31.28151 | -92.44981 | 39999 ft | 398 kts | 243° |
| 2026-05-07 04:13 | 31.25447 | -92.50624 | 40000 ft | 398 kts | 243° |
| 2026-05-07 04:13 | 31.22723 | -92.56251 | 39998 ft | 398 kts | 243° |
| 2026-05-07 04:14 | 31.19994 | -92.61866 | 39996 ft | 398 kts | 243° |
| 2026-05-07 04:14 | 31.17279 | -92.67448 | 39991 ft | 398 kts | 243° |
| 2026-05-07 04:15 | 31.14554 | -92.73047 | 39985 ft | 398 kts | 243° |
| 2026-05-07 04:15 | 31.11812 | -92.78674 | 39981 ft | 398 kts | 243° |
| 2026-05-07 04:16 | 31.09076 | -92.84280 | 39978 ft | 398 kts | 243° |
| 2026-05-07 04:16 | 31.06341 | -92.89878 | 39976 ft | 397 kts | 243° |
| 2026-05-07 04:17 | 31.03599 | -92.95481 | 39976 ft | 397 kts | 243° |
| 2026-05-07 04:17 | 31.00858 | -93.01073 | 39974 ft | 397 kts | 243° |
| 2026-05-07 04:18 | 30.98112 | -93.06667 | 39978 ft | 397 kts | 243° |
| 2026-05-07 04:18 | 30.95364 | -93.12258 | 39981 ft | 397 kts | 243° |
| 2026-05-07 04:19 | 30.92616 | -93.17840 | 39977 ft | 398 kts | 243° |
| 2026-05-07 04:19 | 30.89861 | -93.23429 | 39977 ft | 398 kts | 243° |
| 2026-05-07 04:20 | 30.87106 | -93.29010 | 39981 ft | 398 kts | 243° |
| 2026-05-07 04:20 | 30.84366 | -93.34553 | 39990 ft | 398 kts | 243° |
| 2026-05-07 04:21 | 30.80221 | -93.42922 | 39989 ft | 398 kts | 243° |
| 2026-05-07 04:21 | 30.77456 | -93.48495 | 39985 ft | 398 kts | 243° |
| 2026-05-07 04:22 | 30.74686 | -93.54071 | 39972 ft | 398 kts | 243° |
| 2026-05-07 04:22 | 30.71911 | -93.59646 | 39962 ft | 399 kts | 243° |
| 2026-05-07 04:23 | 30.69132 | -93.65223 | 39955 ft | 399 kts | 243° |
| 2026-05-07 04:23 | 30.66352 | -93.70793 | 39947 ft | 399 kts | 243° |
| 2026-05-07 04:24 | 30.63570 | -93.76361 | 39947 ft | 399 kts | 243° |
| 2026-05-07 04:24 | 30.60783 | -93.81931 | 39949 ft | 399 kts | 242° |
| 2026-05-07 04:25 | 30.57992 | -93.87500 | 39951 ft | 399 kts | 242° |
| 2026-05-07 04:25 | 30.55201 | -93.93060 | 39953 ft | 398 kts | 242° |
| 2026-05-07 04:26 | 30.52411 | -93.98611 | 39952 ft | 398 kts | 242° |
| 2026-05-07 04:26 | 30.49620 | -94.04157 | 39949 ft | 398 kts | 242° |
| 2026-05-07 04:27 | 30.46829 | -94.09696 | 39946 ft | 398 kts | 242° |
| 2026-05-07 04:27 | 30.44036 | -94.15229 | 39945 ft | 398 kts | 242° |
| 2026-05-07 04:28 | 30.41239 | -94.20762 | 39949 ft | 398 kts | 242° |
| 2026-05-07 04:28 | 30.38445 | -94.26285 | 39953 ft | 398 kts | 242° |
| 2026-05-07 04:29 | 30.35645 | -94.31808 | 39950 ft | 398 kts | 242° |
| 2026-05-07 04:29 | 30.32845 | -94.37326 | 39956 ft | 398 kts | 242° |
| 2026-05-07 04:30 | 30.30041 | -94.42843 | 39955 ft | 397 kts | 242° |
| 2026-05-07 04:30 | 30.27238 | -94.48352 | 39953 ft | 397 kts | 242° |
| 2026-05-07 04:31 | 30.24430 | -94.53864 | 39953 ft | 398 kts | 242° |
| 2026-05-07 04:31 | 30.21623 | -94.59365 | 39955 ft | 397 kts | 242° |
| 2026-05-07 04:32 | 30.19112 | -94.63822 | 39958 ft | 400 kts | 237° |
| 2026-05-07 04:32 | 30.14862 | -94.69487 | 39960 ft | 403 kts | 231° |
| 2026-05-07 04:33 | 30.10939 | -94.74120 | 39947 ft | 403 kts | 230° |
| 2026-05-07 04:33 | 30.07009 | -94.78748 | 39947 ft | 404 kts | 230° |
| 2026-05-07 04:34 | 30.03750 | -94.82597 | 39949 ft | 404 kts | 230° |
| 2026-05-07 04:34 | 29.99804 | -94.87263 | 39947 ft | 404 kts | 230° |
| 2026-05-07 04:35 | 29.95910 | -94.91867 | 39948 ft | 404 kts | 230° |
| 2026-05-07 04:35 | 29.91986 | -94.96501 | 39953 ft | 404 kts | 230° |
| 2026-05-07 04:36 | 29.88064 | -95.01127 | 39950 ft | 404 kts | 230° |
| 2026-05-07 04:36 | 29.84137 | -95.05755 | 39952 ft | 404 kts | 230° |
| 2026-05-07 04:37 | 29.80205 | -95.10381 | 39949 ft | 404 kts | 230° |
| 2026-05-07 04:37 | 29.76267 | -95.15010 | 39954 ft | 404 kts | 230° |
| 2026-05-07 04:38 | 29.72333 | -95.19628 | 39959 ft | 404 kts | 230° |
| 2026-05-07 04:38 | 29.68392 | -95.24250 | 39962 ft | 405 kts | 230° |
| 2026-05-07 04:39 | 29.64449 | -95.28867 | 39963 ft | 405 kts | 230° |
| 2026-05-07 04:39 | 29.60501 | -95.33486 | 39962 ft | 405 kts | 230° |
| 2026-05-07 04:40 | 29.56551 | -95.38100 | 39988 ft | 405 kts | 230° |
| 2026-05-07 04:40 | 29.52597 | -95.42715 | 39992 ft | 405 kts | 230° |
| 2026-05-07 04:41 | 29.48645 | -95.47322 | 39990 ft | 405 kts | 230° |
| 2026-05-07 04:41 | 29.44687 | -95.51930 | 39989 ft | 405 kts | 230° |
| 2026-05-07 04:42 | 29.40724 | -95.56538 | 39986 ft | 405 kts | 230° |
| 2026-05-07 04:42 | 29.36765 | -95.61136 | 39979 ft | 405 kts | 230° |
| 2026-05-07 04:43 | 29.32802 | -95.65735 | 39972 ft | 405 kts | 230° |
| 2026-05-07 04:43 | 29.28837 | -95.70329 | 39960 ft | 405 kts | 230° |
| 2026-05-07 04:44 | 29.24902 | -95.74883 | 39959 ft | 405 kts | 229° |
| 2026-05-07 04:44 | 29.20932 | -95.79473 | 39947 ft | 405 kts | 229° |
| 2026-05-07 04:45 | 29.16963 | -95.84057 | 39943 ft | 405 kts | 229° |
| 2026-05-07 04:45 | 29.12995 | -95.88633 | 39943 ft | 405 kts | 229° |
| 2026-05-07 04:46 | 29.09023 | -95.93208 | 39941 ft | 405 kts | 229° |
| 2026-05-07 04:46 | 29.05053 | -95.97777 | 39940 ft | 405 kts | 229° |
| 2026-05-07 04:47 | 29.01092 | -96.02330 | 39941 ft | 405 kts | 229° |
| 2026-05-07 04:47 | 28.97108 | -96.06905 | 39939 ft | 405 kts | 229° |
| 2026-05-07 04:48 | 28.93134 | -96.11461 | 39944 ft | 405 kts | 229° |
| 2026-05-07 04:48 | 28.89159 | -96.16015 | 39951 ft | 405 kts | 229° |
| 2026-05-07 04:49 | 28.85185 | -96.20564 | 39950 ft | 405 kts | 229° |
| 2026-05-07 04:49 | 28.81209 | -96.25109 | 39954 ft | 405 kts | 229° |
| 2026-05-07 04:50 | 28.77154 | -96.29570 | 39957 ft | 407 kts | 225° |
| 2026-05-07 04:50 | 28.72571 | -96.33411 | 39953 ft | 412 kts | 218° |
| 2026-05-07 04:51 | 28.67711 | -96.36890 | 39953 ft | 413 kts | 218° |
| 2026-05-07 04:51 | 28.62877 | -96.40340 | 39949 ft | 413 kts | 218° |
| 2026-05-07 04:52 | 28.58018 | -96.43819 | 39948 ft | 413 kts | 218° |
| 2026-05-07 04:52 | 28.53133 | -96.47321 | 39949 ft | 413 kts | 218° |
| 2026-05-07 04:53 | 28.48309 | -96.50780 | 39950 ft | 413 kts | 218° |
| 2026-05-07 04:53 | 28.43446 | -96.54262 | 39946 ft | 413 kts | 218° |
| 2026-05-07 04:54 | 28.38582 | -96.57741 | 39948 ft | 413 kts | 218° |
| 2026-05-07 04:54 | 28.33707 | -96.61225 | 39947 ft | 414 kts | 218° |
| 2026-05-07 04:55 | 28.28832 | -96.64704 | 39946 ft | 415 kts | 218° |
| 2026-05-07 04:55 | 28.23944 | -96.68189 | 39943 ft | 415 kts | 218° |
| 2026-05-07 04:56 | 28.19050 | -96.71674 | 39949 ft | 416 kts | 217° |
| 2026-05-07 04:56 | 28.14148 | -96.75161 | 39945 ft | 416 kts | 217° |
| 2026-05-07 04:57 | 28.09242 | -96.78647 | 39939 ft | 417 kts | 217° |
| 2026-05-07 04:57 | 28.04324 | -96.82138 | 39947 ft | 417 kts | 217° |
| 2026-05-07 04:58 | 27.99400 | -96.85629 | 39950 ft | 418 kts | 217° |
| 2026-05-07 04:58 | 27.94468 | -96.89123 | 39943 ft | 419 kts | 217° |
| 2026-05-07 04:59 | 27.89524 | -96.92620 | 39950 ft | 419 kts | 217° |
| 2026-05-07 04:59 | 27.84576 | -96.96117 | 39951 ft | 420 kts | 217° |
| 2026-05-07 05:00 | 27.79618 | -96.99617 | 39950 ft | 421 kts | 217° |
| 2026-05-07 05:00 | 27.74654 | -97.03117 | 39954 ft | 421 kts | 217° |
| 2026-05-07 05:01 | 27.69682 | -97.06619 | 39952 ft | 421 kts | 217° |
| 2026-05-07 05:01 | 27.64705 | -97.10121 | 39947 ft | 422 kts | 217° |
| 2026-05-07 05:02 | 27.59729 | -97.13618 | 39926 ft | 422 kts | 217° |
| 2026-05-07 05:02 | 27.54738 | -97.17122 | 39922 ft | 422 kts | 217° |
| 2026-05-07 05:03 | 27.49756 | -97.20616 | 39919 ft | 422 kts | 217° |
| 2026-05-07 05:03 | 27.44771 | -97.24109 | 39921 ft | 422 kts | 217° |
| 2026-05-07 05:04 | 27.39787 | -97.27597 | 39914 ft | 422 kts | 217° |
| 2026-05-07 05:04 | 27.34829 | -97.31063 | 39914 ft | 422 kts | 217° |
| 2026-05-07 05:05 | 27.29834 | -97.34551 | 39914 ft | 423 kts | 217° |
| 2026-05-07 05:05 | 27.24835 | -97.38038 | 39915 ft | 423 kts | 217° |
| 2026-05-07 05:06 | 27.19829 | -97.41526 | 39913 ft | 423 kts | 217° |
| 2026-05-07 05:06 | 27.14824 | -97.45010 | 39918 ft | 423 kts | 217° |
| 2026-05-07 05:07 | 27.09814 | -97.48494 | 39913 ft | 424 kts | 217° |
| 2026-05-07 05:07 | 27.04797 | -97.51979 | 39917 ft | 424 kts | 217° |
| 2026-05-07 05:08 | 26.99776 | -97.55463 | 39915 ft | 425 kts | 216° |
| 2026-05-07 05:08 | 26.94746 | -97.58949 | 39912 ft | 425 kts | 216° |
| 2026-05-07 05:09 | 26.89718 | -97.62431 | 39906 ft | 425 kts | 216° |
| 2026-05-07 05:09 | 26.84681 | -97.65914 | 39902 ft | 426 kts | 216° |
| 2026-05-07 05:10 | 26.79647 | -97.69392 | 39909 ft | 426 kts | 216° |
| 2026-05-07 05:10 | 26.74588 | -97.72884 | 39907 ft | 426 kts | 216° |
| 2026-05-07 05:11 | 26.69539 | -97.76365 | 39901 ft | 427 kts | 216° |
| 2026-05-07 05:11 | 26.64477 | -97.79852 | 39901 ft | 427 kts | 216° |
| 2026-05-07 05:12 | 26.59447 | -97.83312 | 39900 ft | 428 kts | 216° |
| 2026-05-07 05:12 | 26.54381 | -97.86794 | 39901 ft | 428 kts | 216° |
| 2026-05-07 05:13 | 26.49309 | -97.90277 | 39902 ft | 428 kts | 216° |
| 2026-05-07 05:13 | 26.44237 | -97.93755 | 39903 ft | 428 kts | 216° |
| 2026-05-07 05:14 | 26.39155 | -97.97237 | 39903 ft | 428 kts | 216° |
| 2026-05-07 05:14 | 26.34078 | -98.00712 | 39903 ft | 429 kts | 216° |
| 2026-05-07 05:15 | 26.28995 | -98.04188 | 39921 ft | 429 kts | 216° |
| 2026-05-07 05:15 | 26.23910 | -98.07661 | 39920 ft | 429 kts | 216° |
| 2026-05-07 05:16 | 26.18818 | -98.11136 | 39913 ft | 429 kts | 216° |
| 2026-05-07 05:16 | 26.13725 | -98.14609 | 39915 ft | 429 kts | 216° |
| 2026-05-07 05:17 | 26.08630 | -98.18096 | 39445 ft | 434 kts | 218° |
| 2026-05-07 05:17 | 26.06418 | -98.20355 | 38784 ft | 429 kts | 233° |
| 2026-05-07 05:17 | 26.04878 | -98.23173 | 38006 ft | 427 kts | 247° |
| 2026-05-07 05:18 | 26.03971 | -98.26307 | 37284 ft | 425 kts | 256° |
| 2026-05-07 05:18 | 26.03501 | -98.29529 | 36718 ft | 422 kts | 263° |
| 2026-05-07 05:18 | 26.03575 | -98.32780 | 36149 ft | 424 kts | 278° |
| 2026-05-07 05:18 | 26.04363 | -98.35923 | 35648 ft | 421 kts | 283° |
| 2026-05-07 05:19 | 26.05276 | -98.39012 | 35083 ft | 419 kts | 284° |
| 2026-05-07 05:19 | 26.06194 | -98.42083 | 34540 ft | 417 kts | 283° |
| 2026-05-07 05:19 | 26.07083 | -98.45138 | 33985 ft | 414 kts | 283° |
| 2026-05-07 05:19 | 26.07942 | -98.48188 | 33390 ft | 412 kts | 282° |
| 2026-05-07 05:20 | 26.08777 | -98.51221 | 32846 ft | 409 kts | 282° |
| 2026-05-07 05:20 | 26.09599 | -98.54236 | 32286 ft | 405 kts | 282° |
| 2026-05-07 05:20 | 26.10411 | -98.57226 | 31767 ft | 402 kts | 282° |
| 2026-05-07 05:20 | 26.11217 | -98.60188 | 31244 ft | 399 kts | 282° |
| 2026-05-07 05:21 | 26.11748 | -98.62143 | 30909 ft | 397 kts | 281° |
| 2026-05-07 05:21 | 26.12437 | -98.68067 | 29879 ft | 381 kts | 265° |
| 2026-05-07 05:21 | 26.12262 | -98.70996 | 29269 ft | 377 kts | 259° |
| 2026-05-07 05:22 | 26.11724 | -98.73821 | 28726 ft | 371 kts | 253° |
| 2026-05-07 05:22 | 26.11043 | -98.76572 | 28188 ft | 368 kts | 252° |
| 2026-05-07 05:22 | 26.10344 | -98.79300 | 27681 ft | 365 kts | 252° |
| 2026-05-07 05:22 | 26.09651 | -98.82002 | 27169 ft | 362 kts | 251° |
| 2026-05-07 05:23 | 26.08969 | -98.84683 | 26681 ft | 360 kts | 252° |
| 2026-05-07 05:23 | 26.08296 | -98.87355 | 26196 ft | 358 kts | 252° |
| 2026-05-07 05:23 | 26.07630 | -98.90018 | 25717 ft | 356 kts | 252° |
| 2026-05-07 05:23 | 26.06969 | -98.92667 | 25231 ft | 355 kts | 251° |
| 2026-05-07 05:24 | 26.06312 | -98.95306 | 24744 ft | 354 kts | 251° |
| 2026-05-07 05:24 | 26.05657 | -98.97942 | 24255 ft | 353 kts | 251° |
| 2026-05-07 05:24 | 26.05001 | -99.00573 | 23775 ft | 353 kts | 251° |
| 2026-05-07 05:24 | 26.04346 | -99.03205 | 23267 ft | 353 kts | 251° |
| 2026-05-07 05:25 | 26.03693 | -99.05822 | 22736 ft | 351 kts | 251° |
| 2026-05-07 05:25 | 26.03042 | -99.08433 | 22241 ft | 349 kts | 251° |
| 2026-05-07 05:25 | 26.02394 | -99.11029 | 21764 ft | 347 kts | 251° |
| 2026-05-07 05:25 | 26.01752 | -99.13600 | 21295 ft | 344 kts | 251° |
| 2026-05-07 05:26 | 26.01113 | -99.16156 | 20829 ft | 342 kts | 251° |
| 2026-05-07 05:26 | 26.00477 | -99.18695 | 20368 ft | 340 kts | 251° |
| 2026-05-07 05:26 | 25.99853 | -99.21184 | 19910 ft | 338 kts | 251° |
| 2026-05-07 05:26 | 25.99159 | -99.23669 | 19417 ft | 336 kts | 249° |
| 2026-05-07 05:27 | 25.98400 | -99.26125 | 18944 ft | 335 kts | 249° |
| 2026-05-07 05:27 | 25.97637 | -99.28564 | 18452 ft | 334 kts | 249° |
| 2026-05-07 05:27 | 25.96882 | -99.31006 | 17941 ft | 334 kts | 249° |
| 2026-05-07 05:27 | 25.96136 | -99.33446 | 17421 ft | 332 kts | 249° |
| 2026-05-07 05:28 | 25.95400 | -99.35864 | 17038 ft | 328 kts | 249° |
| 2026-05-07 05:28 | 25.94661 | -99.38280 | 16902 ft | 333 kts | 249° |
| 2026-05-07 05:28 | 25.93913 | -99.40712 | 16883 ft | 331 kts | 249° |
| 2026-05-07 05:28 | 25.93172 | -99.43119 | 16864 ft | 327 kts | 249° |
| 2026-05-07 05:29 | 25.92439 | -99.45501 | 16866 ft | 325 kts | 249° |
| 2026-05-07 05:29 | 25.91707 | -99.47880 | 16877 ft | 326 kts | 249° |
| 2026-05-07 05:29 | 25.90972 | -99.50262 | 16879 ft | 327 kts | 249° |
| 2026-05-07 05:29 | 25.90235 | -99.52653 | 16877 ft | 328 kts | 249° |
| 2026-05-07 05:30 | 25.89497 | -99.55047 | 16876 ft | 328 kts | 249° |
| 2026-05-07 05:30 | 25.88756 | -99.57448 | 16877 ft | 329 kts | 249° |
| 2026-05-07 05:30 | 25.88015 | -99.59848 | 16878 ft | 329 kts | 249° |
| 2026-05-07 05:30 | 25.87272 | -99.62251 | 16881 ft | 329 kts | 249° |
| 2026-05-07 05:31 | 25.86473 | -99.64617 | 16870 ft | 324 kts | 240° |
| 2026-05-07 05:31 | 25.85157 | -99.66626 | 16859 ft | 324 kts | 225° |
| 2026-05-07 05:31 | 25.83369 | -99.68165 | 16725 ft | 326 kts | 214° |
| 2026-05-07 05:31 | 25.81667 | -99.69760 | 16604 ft | 318 kts | 231° |
| 2026-05-07 05:32 | 25.80617 | -99.71879 | 16457 ft | 312 kts | 250° |
| 2026-05-07 05:32 | 25.80283 | -99.74233 | 16319 ft | 309 kts | 266° |
| 2026-05-07 05:32 | 25.80501 | -99.76601 | 16161 ft | 311 kts | 279° |
| 2026-05-07 05:32 | 25.81340 | -99.78823 | 16016 ft | 317 kts | 297° |
| 2026-05-07 05:33 | 25.82553 | -99.80895 | 15837 ft | 323 kts | 299° |
| 2026-05-07 05:33 | 25.83813 | -99.82988 | 15635 ft | 328 kts | 299° |
| 2026-05-07 05:33 | 25.85061 | -99.85104 | 15398 ft | 327 kts | 299° |
| 2026-05-07 05:33 | 25.86287 | -99.87212 | 15152 ft | 324 kts | 298° |
| 2026-05-07 05:34 | 25.87493 | -99.89309 | 14929 ft | 320 kts | 298° |
| 2026-05-07 05:34 | 25.88683 | -99.91387 | 14700 ft | 317 kts | 298° |
| 2026-05-07 05:34 | 25.89850 | -99.93428 | 14473 ft | 309 kts | 298° |
| 2026-05-07 05:34 | 25.90991 | -99.95423 | 14242 ft | 302 kts | 298° |
| 2026-05-07 05:35 | 25.92104 | -99.97369 | 14048 ft | 295 kts | 298° |
| 2026-05-07 05:35 | 25.93197 | -99.99284 | 13720 ft | 293 kts | 298° |
| 2026-05-07 05:35 | 25.94288 | -100.01195 | 13327 ft | 292 kts | 299° |
| 2026-05-07 05:35 | 25.95373 | -100.03095 | 12958 ft | 290 kts | 299° |
| 2026-05-07 05:36 | 25.96451 | -100.04983 | 12590 ft | 289 kts | 299° |
| 2026-05-07 05:36 | 25.97527 | -100.06868 | 12172 ft | 290 kts | 299° |
| 2026-05-07 05:36 | 25.98609 | -100.08766 | 11729 ft | 291 kts | 300° |
| 2026-05-07 05:36 | 25.99695 | -100.10672 | 11305 ft | 293 kts | 300° |
| 2026-05-07 05:37 | 26.00772 | -100.12559 | 10857 ft | 285 kts | 300° |
| 2026-05-07 05:37 | 26.01817 | -100.14392 | 10442 ft | 277 kts | 300° |
| 2026-05-07 05:37 | 26.02820 | -100.16153 | 10027 ft | 270 kts | 300° |
| 2026-05-07 05:37 | 26.03814 | -100.17909 | 9661 ft | 265 kts | 297° |
| 2026-05-07 05:38 | 26.04355 | -100.19804 | 9194 ft | 253 kts | 267° |
| 2026-05-07 05:38 | 26.04002 | -100.21643 | 8793 ft | 239 kts | 240° |
| 2026-05-07 05:38 | 26.03087 | -100.23124 | 8387 ft | 228 kts | 221° |
| 2026-05-07 05:38 | 26.01848 | -100.24166 | 8023 ft | 222 kts | 208° |
| 2026-05-07 05:39 | 26.00515 | -100.25052 | 7660 ft | 227 kts | 207° |
| 2026-05-07 05:39 | 25.99136 | -100.25957 | 7265 ft | 233 kts | 207° |
| 2026-05-07 05:39 | 25.97741 | -100.26873 | 6917 ft | 231 kts | 207° |
| 2026-05-07 05:39 | 25.96372 | -100.27780 | 6667 ft | 226 kts | 207° |
| 2026-05-07 05:40 | 25.95029 | -100.28676 | 6337 ft | 224 kts | 208° |
| 2026-05-07 05:40 | 25.93710 | -100.29560 | 6038 ft | 219 kts | 207° |
| 2026-05-07 05:40 | 25.92422 | -100.30424 | 5767 ft | 214 kts | 207° |
| 2026-05-07 05:40 | 25.91148 | -100.31182 | 5515 ft | 201 kts | 192° |
| 2026-05-07 05:41 | 25.89817 | -100.31141 | 5256 ft | 189 kts | 156° |
| 2026-05-07 05:41 | 25.88725 | -100.30368 | 5049 ft | 187 kts | 133° |
| 2026-05-07 05:41 | 25.87960 | -100.29198 | 4826 ft | 189 kts | 120° |
| 2026-05-07 05:41 | 25.87275 | -100.27938 | 4581 ft | 192 kts | 120° |
| 2026-05-07 05:42 | 25.86589 | -100.26669 | 4334 ft | 191 kts | 120° |
| 2026-05-07 05:42 | 25.85910 | -100.25421 | 4089 ft | 186 kts | 120° |
| 2026-05-07 05:42 | 25.85248 | -100.24203 | 3878 ft | 186 kts | 119° |
| 2026-05-07 05:42 | 25.84574 | -100.22963 | 3642 ft | 187 kts | 120° |
| 2026-05-07 05:43 | 25.83917 | -100.21763 | 3396 ft | 177 kts | 119° |
| 2026-05-07 05:43 | 25.83288 | -100.20608 | 3157 ft | 173 kts | 119° |
| 2026-05-07 05:43 | 25.82680 | -100.19497 | 2911 ft | 163 kts | 119° |
| 2026-05-07 05:43 | 25.82098 | -100.18432 | 2710 ft | 161 kts | 119° |
| 2026-05-07 05:44 | 25.81532 | -100.17402 | 2522 ft | 151 kts | 118° |
| 2026-05-07 05:44 | 25.81007 | -100.16447 | 2302 ft | 144 kts | 118° |
| 2026-05-07 05:44 | 25.80487 | -100.15490 | 2099 ft | 143 kts | 118° |
| 2026-05-07 05:44 | 25.79971 | -100.14544 | 1898 ft | 143 kts | 119° |
| 2026-05-07 05:45 | 25.79455 | -100.13611 | 1845 ft | 142 kts | 119° |
| 2026-05-07 05:45 | 25.78949 | -100.12653 | 1626 ft | 146 kts | 120° |
| 2026-05-07 05:45 | 25.78427 | -100.11711 | 1356 ft | 141 kts | 121° |
| 2026-05-07 05:45 | 25.77933 | -100.10831 | 1278 ft | 122 kts | 122° |
| 2026-05-07 05:46 | 25.77578 | -100.10194 | 1270 ft | 81 kts | 122° |
| 2026-05-07 05:46 | 25.77330 | -100.09746 | 1269 ft | 33 kts | 121° |
| 2026-05-07 05:46 | 25.77231 | -100.09701 | 1270 ft | 13 kts | 215° |
| 2026-05-07 05:46 | 25.77163 | -100.09771 | 1267 ft | 14 kts | 235° |
| 2026-05-07 05:47 | 25.77180 | -100.09872 | 1268 ft | 14 kts | 301° |
| 2026-05-07 05:47 | 25.77231 | -100.09963 | 1267 ft | 14 kts | 302° |
| 2026-05-07 05:47 | 25.77279 | -100.10054 | 1271 ft | 14 kts | 300° |
| 2026-05-07 05:47 | 25.77328 | -100.10147 | 1274 ft | 14 kts | 300° |
| 2026-05-07 05:48 | 25.77382 | -100.10238 | 1274 ft | 14 kts | 303° |
| 2026-05-07 05:48 | 25.77432 | -100.10330 | 1273 ft | 14 kts | 299° |
| 2026-05-07 05:48 | 25.77480 | -100.10421 | 1277 ft | 14 kts | 302° |
| 2026-05-07 05:48 | 25.77531 | -100.10512 | 1274 ft | 14 kts | 301° |
| 2026-05-07 05:49 | 25.77581 | -100.10603 | 1278 ft | 14 kts | 301° |
| 2026-05-07 05:49 | 25.77634 | -100.10698 | 1277 ft | 15 kts | 302° |
| 2026-05-07 05:49 | 25.77692 | -100.10802 | 1280 ft | 16 kts | 302° |
| 2026-05-07 05:49 | 25.77753 | -100.10911 | 1278 ft | 17 kts | 302° |
| 2026-05-07 05:50 | 25.77813 | -100.11023 | 1277 ft | 17 kts | 301° |
| 2026-05-07 05:50 | 25.77875 | -100.11134 | 1279 ft | 17 kts | 301° |
| 2026-05-07 05:50 | 25.77934 | -100.11245 | 1283 ft | 17 kts | 301° |
| 2026-05-07 05:50 | 25.77994 | -100.11355 | 1284 ft | 17 kts | 301° |
| 2026-05-07 05:51 | 25.78055 | -100.11467 | 1287 ft | 17 kts | 301° |
| 2026-05-07 05:51 | 25.78113 | -100.11573 | 1288 ft | 13 kts | 301° |
| 2026-05-07 05:51 | 25.78100 | -100.11668 | 1289 ft | 14 kts | 238° |
| 2026-05-07 05:51 | 25.78090 | -100.11772 | 1287 ft | 14 kts | 288° |
| 2026-05-07 05:52 | 25.78147 | -100.11859 | 1288 ft | 15 kts | 332° |
| 2026-05-07 05:52 | 25.78236 | -100.11828 | 1289 ft | 9 kts | 46° |
| 2026-05-07 05:52 | 25.78225 | -100.11771 | 1288 ft | 9 kts | 122° |
| 2026-05-07 05:52 | 25.78186 | -100.11702 | 1287 ft | 12 kts | 122° |
| 2026-05-07 05:53 | 25.78139 | -100.11617 | 1292 ft | 14 kts | 121° |
| 2026-05-07 05:53 | 25.78087 | -100.11521 | 1288 ft | 12 kts | 120° |
| 2026-05-07 05:53 | 25.78025 | -100.11502 | 1287 ft | 10 kts | 204° |
| 2026-05-07 05:53 | 25.78009 | -100.11542 | 1287 ft | 5 kts | 290° |
| 2026-05-07 05:54 | 25.78024 | -100.11560 | 1290 ft | 4 kts | 303° |
| 2026-05-07 05:54 | 25.78026 | -100.11564 | 1290 ft | 0 kts | 302° |